createdAt,value
2023-04-10T00:00:08.475Z,26.91
2023-04-10T00:01:10.667Z,26.92
2023-04-10T00:02:12.542Z,26.90
2023-04-10T00:03:14.898Z,26.89
2023-04-10T00:04:17.603Z,26.90
2023-04-10T00:05:19.508Z,26.88
2023-04-10T00:06:21.878Z,26.88
2023-04-10T00:07:23.987Z,26.88
2023-04-10T00:08:26.544Z,26.86
2023-04-10T00:09:30.732Z,26.88
2023-04-10T00:10:33.418Z,26.87
2023-04-10T00:11:35.670Z,26.88
2023-04-10T00:12:38.113Z,26.87
2023-04-10T00:13:40.042Z,26.86
2023-04-10T00:14:42.357Z,26.82
2023-04-10T00:15:44.196Z,26.86
2023-04-10T00:16:46.452Z,26.86
2023-04-10T00:17:50.620Z,26.84
2023-04-10T00:18:52.806Z,26.84
2023-04-10T00:19:54.661Z,26.85
2023-04-10T00:20:56.674Z,26.82
2023-04-10T00:21:58.562Z,26.82
2023-04-10T00:23:00.436Z,26.83
2023-04-10T00:24:02.502Z,26.83
2023-04-10T00:25:06.549Z,26.84
2023-04-10T00:26:08.983Z,26.80
2023-04-10T00:27:10.888Z,26.81
2023-04-10T00:28:12.784Z,26.80
2023-04-10T00:29:14.690Z,26.80
2023-04-10T00:30:16.626Z,26.80
2023-04-10T00:31:18.690Z,26.80
2023-04-10T00:32:20.695Z,26.80
2023-04-10T00:33:22.892Z,26.80
2023-04-10T00:34:24.773Z,26.79
2023-04-10T00:35:27.018Z,26.79
2023-04-10T00:36:29.403Z,26.80
2023-04-10T00:37:31.383Z,26.79
2023-04-10T00:38:33.383Z,26.76
2023-04-10T00:39:35.478Z,26.78
2023-04-10T00:40:37.376Z,26.78
2023-04-10T00:41:39.544Z,26.78
2023-04-10T00:42:41.678Z,26.77
2023-04-10T00:43:46.842Z,26.76
2023-04-10T00:44:48.739Z,26.75
2023-04-10T00:45:51.007Z,26.75
2023-04-10T00:46:53.320Z,26.73
2023-04-10T00:47:56.206Z,26.75
2023-04-10T00:48:58.654Z,26.74
2023-04-10T00:50:01.038Z,26.77
2023-04-10T00:51:06.101Z,26.74
2023-04-10T00:52:08.595Z,26.74
2023-04-10T00:53:10.781Z,26.72
2023-04-10T00:54:13.265Z,26.74
2023-04-10T00:55:16.061Z,26.71
2023-04-10T00:56:19.412Z,26.72
2023-04-10T00:57:21.415Z,26.70
2023-04-10T00:58:23.455Z,26.71
2023-04-10T00:59:25.704Z,26.71
2023-04-10T01:00:27.617Z,26.70
2023-04-10T01:01:30.094Z,26.69
2023-04-10T01:02:32.515Z,26.68
2023-04-10T01:03:36.137Z,26.69
2023-04-10T01:04:38.588Z,26.68
2023-04-10T01:05:57.650Z,26.73
2023-04-10T01:07:10.829Z,26.74
2023-04-10T01:08:23.559Z,26.71
2023-04-10T01:10:03.609Z,26.78
2023-04-10T01:11:27.519Z,26.73
2023-04-10T01:12:56.170Z,26.74
2023-04-10T01:14:25.649Z,26.72
2023-04-10T01:15:37.474Z,26.66
2023-04-10T01:17:13.391Z,26.69
2023-04-10T01:18:29.459Z,26.65
2023-04-10T01:20:12.318Z,26.71
2023-04-10T01:21:17.248Z,26.63
2023-04-10T01:22:25.963Z,26.60
2023-04-10T01:24:07.708Z,26.68
2023-04-10T01:25:32.469Z,26.63
2023-04-10T01:27:11.202Z,26.64
2023-04-10T01:28:19.170Z,26.57
2023-04-10T01:29:27.259Z,26.55
2023-04-10T01:30:32.199Z,26.51
2023-04-10T01:31:42.819Z,26.54
2023-04-10T01:32:44.918Z,26.50
2023-04-10T01:33:56.836Z,26.53
2023-04-10T01:35:06.812Z,26.53
2023-04-10T01:36:11.531Z,26.52
2023-04-10T01:37:21.483Z,26.52
2023-04-10T01:38:26.656Z,26.49
2023-04-10T01:39:31.513Z,26.50
2023-04-10T01:40:37.410Z,26.47
2023-04-10T01:41:43.974Z,26.49
2023-04-10T01:42:53.473Z,26.51
2023-04-10T01:43:58.024Z,26.48
2023-04-10T01:45:02.217Z,26.48
2023-04-10T01:46:06.044Z,26.47
2023-04-10T01:47:08.232Z,26.47
2023-04-10T01:48:11.442Z,26.47
2023-04-10T01:49:14.562Z,26.48
2023-04-10T01:50:17.742Z,26.48
2023-04-10T01:51:21.156Z,26.48
2023-04-10T01:52:24.680Z,26.48
2023-04-10T01:53:27.771Z,26.48
2023-04-10T01:54:33.587Z,26.47
2023-04-10T01:55:39.978Z,26.51
2023-04-10T01:56:42.237Z,26.48
2023-04-10T01:57:45.627Z,26.46
2023-04-10T01:58:48.114Z,26.45
2023-04-10T01:59:50.733Z,26.45
2023-04-10T02:00:52.933Z,26.43
2023-04-10T02:01:59.258Z,26.48
2023-04-10T02:03:01.617Z,26.43
2023-04-10T02:04:04.025Z,26.45
2023-04-10T02:05:06.698Z,26.44
2023-04-10T02:06:15.804Z,26.42
2023-04-10T02:07:39.862Z,26.49
2023-04-10T02:08:53.002Z,26.47
2023-04-10T02:10:13.255Z,26.49
2023-04-10T02:11:55.299Z,26.52
2023-04-10T02:13:06.554Z,26.47
2023-04-10T02:14:12.015Z,26.42
2023-04-10T02:15:19.229Z,26.44
2023-04-10T02:16:23.667Z,26.41
2023-04-10T02:17:30.421Z,26.42
2023-04-10T02:18:36.664Z,26.41
2023-04-10T02:19:41.317Z,26.40
2023-04-10T02:20:43.939Z,26.38
2023-04-10T02:21:47.172Z,26.38
2023-04-10T02:22:50.095Z,26.39
2023-04-10T02:23:52.146Z,26.38
2023-04-10T02:24:55.036Z,26.36
2023-04-10T02:25:57.215Z,26.38
2023-04-10T02:26:59.444Z,26.38
2023-04-10T02:28:08.465Z,26.41
2023-04-10T02:29:10.553Z,26.36
2023-04-10T02:30:12.398Z,26.37
2023-04-10T02:31:15.969Z,26.36
2023-04-10T02:32:19.351Z,26.35
2023-04-10T02:33:21.483Z,26.37
2023-04-10T02:34:23.663Z,26.34
2023-04-10T02:35:26.448Z,26.35
2023-04-10T02:36:28.768Z,26.37
2023-04-10T02:37:32.813Z,26.34
2023-04-10T02:38:34.882Z,26.36
2023-04-10T02:39:37.586Z,26.37
2023-04-10T02:40:39.482Z,26.36
2023-04-10T02:41:41.516Z,26.34
2023-04-10T02:42:43.613Z,26.36
2023-04-10T02:43:45.463Z,26.34
2023-04-10T02:44:48.940Z,26.34
2023-04-10T02:45:51.280Z,26.36
2023-04-10T02:46:53.431Z,26.34
2023-04-10T02:47:55.388Z,26.35
2023-04-10T02:48:57.935Z,26.36
2023-04-10T02:49:59.739Z,26.33
2023-04-10T02:51:01.832Z,26.33
2023-04-10T02:52:03.705Z,26.31
2023-04-10T02:53:05.995Z,26.32
2023-04-10T02:54:07.914Z,26.33
2023-04-10T02:55:10.425Z,26.33
2023-04-10T02:56:12.588Z,26.31
2023-04-10T02:57:14.462Z,26.31
2023-04-10T02:58:17.383Z,26.32
2023-04-10T02:59:19.835Z,26.32
2023-04-10T03:00:22.969Z,26.30
2023-04-10T03:01:24.900Z,26.32
2023-04-10T03:02:27.251Z,26.30
2023-04-10T03:03:29.260Z,26.30
2023-04-10T03:04:33.309Z,26.32
2023-04-10T03:05:35.636Z,26.30
2023-04-10T03:06:37.645Z,26.28
2023-04-10T03:07:39.462Z,26.30
2023-04-10T03:08:41.297Z,26.30
2023-04-10T03:09:43.233Z,26.30
2023-04-10T03:10:46.860Z,26.29
2023-04-10T03:11:48.832Z,26.28
2023-04-10T03:12:50.687Z,26.30
2023-04-10T03:13:52.748Z,26.28
2023-04-10T03:14:55.134Z,26.28
2023-04-10T03:15:57.262Z,26.29
2023-04-10T03:16:59.110Z,26.29
2023-04-10T03:18:01.222Z,26.28
2023-04-10T03:19:03.180Z,26.27
2023-04-10T03:20:05.927Z,26.27
2023-04-10T03:21:08.014Z,26.27
2023-04-10T03:22:11.031Z,26.27
2023-04-10T03:23:13.322Z,26.27
2023-04-10T03:24:16.484Z,26.25
2023-04-10T03:25:18.747Z,26.25
2023-04-10T03:26:21.124Z,26.26
2023-04-10T03:27:23.357Z,26.25
2023-04-10T03:28:25.168Z,26.27
2023-04-10T03:29:27.296Z,26.27
2023-04-10T03:30:29.256Z,26.27
2023-04-10T03:31:31.629Z,26.27
2023-04-10T03:32:33.486Z,26.25
2023-04-10T03:33:35.479Z,26.24
2023-04-10T03:34:37.409Z,26.22
2023-04-10T03:35:39.378Z,26.24
2023-04-10T03:36:41.821Z,26.26
2023-04-10T03:37:43.804Z,26.24
2023-04-10T03:38:45.720Z,26.22
2023-04-10T03:39:47.767Z,26.25
2023-04-10T03:40:49.671Z,26.24
2023-04-10T03:41:51.588Z,26.22
2023-04-10T03:42:53.601Z,26.23
2023-04-10T03:43:55.807Z,26.23
2023-04-10T03:44:58.866Z,26.23
2023-04-10T03:46:01.811Z,26.22
2023-04-10T03:47:03.906Z,26.21
2023-04-10T03:48:06.431Z,26.21
2023-04-10T03:49:08.487Z,26.20
2023-04-10T03:50:10.693Z,26.23
2023-04-10T03:51:13.306Z,26.19
2023-04-10T03:52:15.581Z,26.22
2023-04-10T03:53:17.754Z,26.19
2023-04-10T03:54:19.903Z,26.19
2023-04-10T03:55:21.785Z,26.19
2023-04-10T03:56:23.855Z,26.19
2023-04-10T03:57:25.717Z,26.20
2023-04-10T03:58:29.005Z,26.18
2023-04-10T03:59:38.316Z,26.19
2023-04-10T04:00:41.303Z,26.20
2023-04-10T04:01:45.661Z,26.18
2023-04-10T04:02:51.027Z,26.18
2023-04-10T04:03:53.485Z,26.18
2023-04-10T04:04:55.875Z,26.20
2023-04-10T04:05:57.784Z,26.18
2023-04-10T04:06:59.562Z,26.18
2023-04-10T04:08:01.735Z,26.16
2023-04-10T04:09:03.956Z,26.17
2023-04-10T04:10:06.700Z,26.14
2023-04-10T04:11:08.843Z,26.17
2023-04-10T04:12:10.686Z,26.15
2023-04-10T04:13:12.750Z,26.18
2023-04-10T04:14:14.892Z,26.16
2023-04-10T04:15:17.238Z,26.14
2023-04-10T04:16:20.741Z,26.17
2023-04-10T04:17:22.572Z,26.16
2023-04-10T04:18:24.354Z,26.16
2023-04-10T04:19:26.322Z,26.15
2023-04-10T04:20:28.490Z,26.15
2023-04-10T04:21:31.419Z,26.17
2023-04-10T04:22:33.314Z,26.15
2023-04-10T04:23:35.540Z,26.18
2023-04-10T04:24:37.449Z,26.17
2023-04-10T04:25:39.357Z,26.15
2023-04-10T04:26:41.466Z,26.18
2023-04-10T04:27:43.278Z,26.16
2023-04-10T04:28:45.220Z,26.19
2023-04-10T04:29:47.471Z,26.19
2023-04-10T04:30:49.422Z,26.19
2023-04-10T04:31:51.706Z,26.18
2023-04-10T04:32:53.590Z,26.19
2023-04-10T04:34:04.598Z,26.23
2023-04-10T04:35:07.456Z,26.21
2023-04-10T04:36:09.707Z,26.20
2023-04-10T04:37:11.826Z,26.19
2023-04-10T04:38:13.758Z,26.21
2023-04-10T04:39:16.335Z,26.19
2023-04-10T04:40:18.440Z,26.20
2023-04-10T04:41:20.758Z,26.22
2023-04-10T04:42:22.946Z,26.21
2023-04-10T04:43:25.079Z,26.21
2023-04-10T04:44:26.868Z,26.21
2023-04-10T04:45:29.719Z,26.19
2023-04-10T04:46:51.782Z,26.27
2023-04-10T04:47:53.594Z,26.22
2023-04-10T04:48:55.774Z,26.23
2023-04-10T04:49:57.978Z,26.23
2023-04-10T04:50:59.867Z,26.23
2023-04-10T04:52:01.995Z,26.21
2023-04-10T04:53:12.531Z,26.20
2023-04-10T04:54:14.589Z,26.23
2023-04-10T04:55:16.434Z,26.21
2023-04-10T04:56:18.250Z,26.22
2023-04-10T04:57:20.337Z,26.21
2023-04-10T04:58:30.903Z,26.24
2023-04-10T04:59:32.966Z,26.22
2023-04-10T05:00:34.748Z,26.22
2023-04-10T05:01:36.767Z,26.22
2023-04-10T05:02:38.961Z,26.22
2023-04-10T05:03:41.376Z,26.22
2023-04-10T05:04:43.571Z,26.21
2023-04-10T05:05:45.586Z,26.21
2023-04-10T05:06:47.735Z,26.20
2023-04-10T05:07:49.850Z,26.22
2023-04-10T05:08:53.299Z,26.23
2023-04-10T05:09:55.681Z,26.22
2023-04-10T05:10:57.595Z,26.23
2023-04-10T05:12:00.230Z,26.21
2023-04-10T05:13:02.481Z,26.23
2023-04-10T05:14:04.576Z,26.22
2023-04-10T05:15:07.572Z,26.22
2023-04-10T05:16:09.546Z,26.22
2023-04-10T05:17:11.657Z,26.20
2023-04-10T05:18:14.183Z,26.20
2023-04-10T05:19:16.364Z,26.21
2023-04-10T05:20:18.634Z,26.22
2023-04-10T05:21:20.502Z,26.20
2023-04-10T05:22:22.666Z,26.22
2023-04-10T05:23:24.605Z,26.21
2023-04-10T05:24:26.523Z,26.23
2023-04-10T05:25:28.450Z,26.23
2023-04-10T05:26:30.282Z,26.23
2023-04-10T05:27:32.199Z,26.22
2023-04-10T05:28:33.986Z,26.24
2023-04-10T05:29:36.227Z,26.25
2023-04-10T05:30:38.075Z,26.25
2023-04-10T05:31:39.865Z,26.26
2023-04-10T05:32:41.987Z,26.24
2023-04-10T05:33:44.128Z,26.28
2023-04-10T05:34:46.190Z,26.27
2023-04-10T05:35:48.271Z,26.27
2023-04-10T05:36:50.198Z,26.27
2023-04-10T05:37:52.273Z,26.27
2023-04-10T05:38:54.282Z,26.28
2023-04-10T05:39:56.294Z,26.29
2023-04-10T05:40:58.225Z,26.30
2023-04-10T05:42:00.124Z,26.28
2023-04-10T05:43:03.949Z,26.30
2023-04-10T05:44:05.885Z,26.29
2023-04-10T05:45:09.621Z,26.31
2023-04-10T05:46:12.240Z,26.30
2023-04-10T05:47:14.074Z,26.32
2023-04-10T05:48:16.181Z,26.32
2023-04-10T05:49:18.370Z,26.33
2023-04-10T05:50:21.560Z,26.32
2023-04-10T05:51:27.613Z,26.35
2023-04-10T05:52:29.398Z,26.31
2023-04-10T05:53:38.336Z,26.36
2023-04-10T05:54:40.376Z,26.34
2023-04-10T05:55:42.399Z,26.33
2023-04-10T05:56:44.257Z,26.35
2023-04-10T05:57:46.946Z,26.33
2023-04-10T05:58:48.909Z,26.34
2023-04-10T05:59:53.647Z,26.35
2023-04-10T06:00:58.574Z,26.32
2023-04-10T06:02:01.003Z,26.33
2023-04-10T06:03:03.932Z,26.35
2023-04-10T06:04:06.125Z,26.35
2023-04-10T06:05:08.594Z,26.34
2023-04-10T06:06:33.887Z,26.36
2023-04-10T06:07:36.246Z,26.36
2023-04-10T06:08:38.078Z,26.36
2023-04-10T06:09:39.919Z,26.34
2023-04-10T06:10:41.997Z,26.35
2023-04-10T06:11:43.869Z,26.34
2023-04-10T06:12:45.871Z,26.33
2023-04-10T06:13:47.686Z,26.34
2023-04-10T06:14:49.762Z,26.33
2023-04-10T06:15:51.993Z,26.34
2023-04-10T06:16:54.192Z,26.33
2023-04-10T06:17:56.514Z,26.34
2023-04-10T06:18:58.854Z,26.34
2023-04-10T06:20:04.704Z,26.36
2023-04-10T06:21:07.377Z,26.36
2023-04-10T06:22:09.390Z,26.36
2023-04-10T06:23:12.343Z,26.36
2023-04-10T06:24:14.345Z,26.34
2023-04-10T06:25:16.732Z,26.36
2023-04-10T06:26:18.645Z,26.33
2023-04-10T06:27:20.774Z,26.36
2023-04-10T06:28:23.108Z,26.34
2023-04-10T06:29:25.634Z,26.35
2023-04-10T06:30:27.500Z,26.33
2023-04-10T06:31:33.163Z,26.37
2023-04-10T06:32:35.573Z,26.36
2023-04-10T06:33:37.690Z,26.37
2023-04-10T06:34:41.881Z,26.34
2023-04-10T06:35:43.906Z,26.35
2023-04-10T06:36:46.202Z,26.33
2023-04-10T06:37:48.560Z,26.33
2023-04-10T06:38:50.609Z,26.29
2023-04-10T06:39:52.448Z,26.32
2023-04-10T06:40:54.388Z,26.30
2023-04-10T06:41:57.797Z,26.29
2023-04-10T06:43:00.832Z,26.29
2023-04-10T06:44:03.583Z,26.30
2023-04-10T06:45:06.810Z,26.30
2023-04-10T06:46:10.023Z,26.28
2023-04-10T06:47:13.395Z,26.28
2023-04-10T06:48:15.594Z,26.27
2023-04-10T06:49:17.553Z,26.29
2023-04-10T06:50:19.648Z,26.27
2023-04-10T06:51:21.502Z,26.28
2023-04-10T06:52:23.803Z,26.27
2023-04-10T06:53:25.659Z,26.26
2023-04-10T06:54:27.797Z,26.27
2023-04-10T06:55:30.892Z,26.28
2023-04-10T06:56:33.083Z,26.28
2023-04-10T06:57:35.584Z,26.26
2023-04-10T06:58:37.696Z,26.28
2023-04-10T06:59:39.769Z,26.28
2023-04-10T07:00:42.115Z,26.29
2023-04-10T07:01:43.990Z,26.28
2023-04-10T07:02:46.242Z,26.30
2023-04-10T07:03:48.451Z,26.28
2023-04-10T07:04:51.315Z,26.29
2023-04-10T07:05:53.140Z,26.31
2023-04-10T07:06:55.372Z,26.30
2023-04-10T07:07:57.285Z,26.31
2023-04-10T07:08:59.216Z,26.30
2023-04-10T07:10:01.286Z,26.29
2023-04-10T07:11:03.215Z,26.29
2023-04-10T07:12:05.422Z,26.29
2023-04-10T07:13:09.183Z,26.32
2023-04-10T07:14:11.790Z,26.33
2023-04-10T07:15:14.050Z,26.31
2023-04-10T07:16:17.126Z,26.32
2023-04-10T07:17:19.102Z,26.33
2023-04-10T07:18:20.942Z,26.32
2023-04-10T07:19:22.804Z,26.33
2023-04-10T07:20:25.075Z,26.32
2023-04-10T07:21:28.081Z,26.30
2023-04-10T07:22:31.027Z,26.32
2023-04-10T07:23:33.009Z,26.31
2023-04-10T07:24:35.054Z,26.33
2023-04-10T07:25:37.056Z,26.34
2023-04-10T07:26:38.838Z,26.34
2023-04-10T07:27:41.185Z,26.33
2023-04-10T07:28:43.041Z,26.35
2023-04-10T07:29:44.960Z,26.36
2023-04-10T07:30:47.181Z,26.34
2023-04-10T07:31:49.353Z,26.36
2023-04-10T07:32:51.650Z,26.38
2023-04-10T07:33:53.623Z,26.38
2023-04-10T07:34:56.780Z,26.37
2023-04-10T07:35:58.648Z,26.37
2023-04-10T07:37:00.468Z,26.36
2023-04-10T07:38:02.689Z,26.36
2023-04-10T07:39:04.593Z,26.36
2023-04-10T07:40:08.724Z,26.38
2023-04-10T07:41:12.196Z,26.36
2023-04-10T07:42:14.085Z,26.38
2023-04-10T07:43:15.996Z,26.36
2023-04-10T07:44:18.573Z,26.37
2023-04-10T07:45:20.664Z,26.37
2023-04-10T07:46:22.728Z,26.37
2023-04-10T07:47:24.899Z,26.38
2023-04-10T07:48:27.463Z,26.40
2023-04-10T07:49:29.589Z,26.39
2023-04-10T07:50:32.248Z,26.40
2023-04-10T07:51:34.243Z,26.38
2023-04-10T07:52:36.130Z,26.38
2023-04-10T07:53:38.101Z,26.41
2023-04-10T07:54:39.897Z,26.41
2023-04-10T07:55:45.407Z,26.42
2023-04-10T07:56:47.298Z,26.41
2023-04-10T07:57:49.369Z,26.41
2023-04-10T07:58:52.166Z,26.42
2023-04-10T07:59:54.282Z,26.42
2023-04-10T08:00:56.308Z,26.43
2023-04-10T08:01:58.311Z,26.42
2023-04-10T08:03:00.896Z,26.44
2023-04-10T08:04:05.569Z,26.45
2023-04-10T08:05:08.607Z,26.45
2023-04-10T08:06:11.885Z,26.45
2023-04-10T08:07:13.790Z,26.46
2023-04-10T08:08:18.495Z,26.48
2023-04-10T08:09:20.512Z,26.46
2023-04-10T08:10:22.598Z,26.46
2023-04-10T08:11:31.042Z,26.51
2023-04-10T08:12:34.633Z,26.47
2023-04-10T08:13:36.778Z,26.48
2023-04-10T08:14:38.976Z,26.50
2023-04-10T08:15:40.896Z,26.48
2023-04-10T08:16:43.001Z,26.50
2023-04-10T08:17:44.964Z,26.51
2023-04-10T08:18:47.429Z,26.51
2023-04-10T08:19:49.227Z,26.51
2023-04-10T08:20:51.442Z,26.52
2023-04-10T08:21:53.312Z,26.51
2023-04-10T08:22:56.236Z,26.53
2023-04-10T08:24:03.163Z,26.52
2023-04-10T08:25:05.949Z,26.52
2023-04-10T08:26:08.013Z,26.55
2023-04-10T08:27:09.933Z,26.54
2023-04-10T08:28:12.120Z,26.55
2023-04-10T08:29:14.280Z,26.55
2023-04-10T08:30:16.364Z,26.56
2023-04-10T08:31:23.188Z,26.58
2023-04-10T08:32:26.710Z,26.57
2023-04-10T08:33:28.609Z,26.56
2023-04-10T08:34:30.881Z,26.58
2023-04-10T08:35:32.685Z,26.58
2023-04-10T08:36:35.235Z,26.59
2023-04-10T08:37:37.648Z,26.58
2023-04-10T08:38:39.904Z,26.61
2023-04-10T08:39:42.198Z,26.60
2023-04-10T08:40:44.805Z,26.63
2023-04-10T08:41:46.973Z,26.64
2023-04-10T08:42:49.516Z,26.61
2023-04-10T08:43:51.709Z,26.61
2023-04-10T08:44:53.751Z,26.64
2023-04-10T08:45:56.479Z,26.65
2023-04-10T08:47:01.072Z,26.64
2023-04-10T08:48:05.823Z,26.67
2023-04-10T08:49:17.313Z,26.68
2023-04-10T08:50:20.681Z,26.66
2023-04-10T08:51:28.939Z,26.67
2023-04-10T08:52:34.923Z,26.68
2023-04-10T08:53:43.584Z,26.69
2023-04-10T08:54:54.082Z,26.70
2023-04-10T08:55:56.466Z,26.68
2023-04-10T08:57:01.369Z,26.68
2023-04-10T08:58:04.763Z,26.68
2023-04-10T08:59:08.416Z,26.69
2023-04-10T09:01:21.715Z,26.74
2023-04-10T09:02:25.331Z,26.71
2023-04-10T09:03:28.047Z,26.70
2023-04-10T09:04:30.483Z,26.72
2023-04-10T09:05:33.240Z,26.74
2023-04-10T09:06:35.201Z,26.74
2023-04-10T09:07:37.266Z,26.74
2023-04-10T09:08:39.109Z,26.73
2023-04-10T09:09:41.190Z,26.74
2023-04-10T09:10:43.022Z,26.73
2023-04-10T09:11:56.407Z,26.79
2023-04-10T09:12:58.280Z,26.78
2023-04-10T09:14:00.233Z,26.78
2023-04-10T09:15:02.294Z,26.78
2023-04-10T09:16:05.374Z,26.76
2023-04-10T09:17:21.773Z,26.83
2023-04-10T09:18:40.842Z,26.85
2023-04-10T09:19:45.464Z,26.84
2023-04-10T09:20:51.509Z,26.80
2023-04-10T09:21:53.519Z,26.82
2023-04-10T09:22:55.896Z,26.82
2023-04-10T09:24:02.078Z,26.84
2023-04-10T09:25:05.416Z,26.83
2023-04-10T09:26:31.338Z,26.91
2023-04-10T09:27:37.301Z,26.87
2023-04-10T09:29:06.698Z,26.93
2023-04-10T09:30:09.507Z,26.88
2023-04-10T09:31:34.779Z,26.92
2023-04-10T09:32:38.788Z,26.86
2023-04-10T09:33:42.181Z,26.88
2023-04-10T09:34:59.000Z,26.90
2023-04-10T09:36:01.308Z,26.87
2023-04-10T09:37:03.385Z,26.87
2023-04-10T09:38:20.742Z,26.92
2023-04-10T09:39:38.486Z,26.91
2023-04-10T09:40:40.472Z,26.90
2023-04-10T09:41:55.570Z,26.93
2023-04-10T09:42:57.780Z,26.92
2023-04-10T09:44:09.103Z,26.93
2023-04-10T09:45:11.034Z,26.91
2023-04-10T09:46:26.078Z,26.93
2023-04-10T09:47:29.386Z,26.93
2023-04-10T09:48:31.690Z,26.91
2023-04-10T09:49:53.001Z,26.99
2023-04-10T09:50:55.189Z,26.94
2023-04-10T09:51:57.791Z,26.93
2023-04-10T09:52:59.580Z,26.95
2023-04-10T09:54:03.833Z,26.94
2023-04-10T09:55:10.495Z,26.98
2023-04-10T09:56:13.268Z,26.97
2023-04-10T09:57:19.742Z,27.00
2023-04-10T09:58:22.874Z,26.98
2023-04-10T09:59:24.971Z,26.98
2023-04-10T10:00:28.019Z,26.99
2023-04-10T10:01:35.157Z,26.98
2023-04-10T10:02:40.040Z,27.02
2023-04-10T10:03:44.047Z,27.02
2023-04-10T10:04:49.702Z,27.03
2023-04-10T10:05:52.141Z,27.04
2023-04-10T10:06:54.899Z,27.05
2023-04-10T10:07:58.489Z,27.05
2023-04-10T10:09:05.762Z,27.08
2023-04-10T10:10:12.126Z,27.08
2023-04-10T10:11:19.952Z,27.11
2023-04-10T10:12:40.769Z,27.14
2023-04-10T10:13:52.672Z,27.12
2023-04-10T10:15:11.666Z,27.17
2023-04-10T10:16:22.646Z,27.14
2023-04-10T10:17:30.377Z,27.14
2023-04-10T10:19:16.450Z,27.24
2023-04-10T10:20:22.437Z,27.18
2023-04-10T10:21:26.914Z,27.16
2023-04-10T10:22:29.309Z,27.14
2023-04-10T10:23:33.836Z,27.14
2023-04-10T10:24:40.084Z,27.15
2023-04-10T10:25:45.943Z,27.14
2023-04-10T10:26:50.343Z,27.15
2023-04-10T10:27:54.484Z,27.17
2023-04-10T10:28:59.127Z,27.18
2023-04-10T10:30:08.553Z,27.17
2023-04-10T10:31:20.288Z,27.19
2023-04-10T10:32:23.761Z,27.20
2023-04-10T10:33:29.546Z,27.20
2023-04-10T10:34:31.945Z,27.21
2023-04-10T10:35:37.653Z,27.22
2023-04-10T10:36:41.337Z,27.23
2023-04-10T10:37:46.336Z,27.23
2023-04-10T10:39:06.840Z,27.24
2023-04-10T10:40:20.540Z,27.26
2023-04-10T10:41:40.938Z,27.29
2023-04-10T10:42:46.132Z,27.27
2023-04-10T10:44:08.759Z,27.29
2023-04-10T10:45:19.692Z,27.31
2023-04-10T10:46:38.541Z,27.28
2023-04-10T10:47:53.222Z,27.29
2023-04-10T10:49:00.949Z,27.28
2023-04-10T10:50:04.393Z,27.26
2023-04-10T10:51:06.729Z,27.25
2023-04-10T10:52:08.882Z,27.23
2023-04-10T10:53:38.960Z,27.33
2023-04-10T10:54:47.324Z,27.27
2023-04-10T10:55:59.367Z,27.26
2023-04-10T10:57:03.157Z,27.27
2023-04-10T10:58:07.798Z,27.27
2023-04-10T10:59:09.856Z,27.26
2023-04-10T11:00:12.254Z,27.25
2023-04-10T11:01:15.094Z,27.27
2023-04-10T11:02:20.003Z,27.27
2023-04-10T11:03:22.994Z,27.27
2023-04-10T11:04:57.636Z,27.38
2023-04-10T11:06:12.804Z,27.34
2023-04-10T11:07:16.915Z,27.31
2023-04-10T11:09:05.584Z,27.41
2023-04-10T11:10:09.186Z,27.36
2023-04-10T11:11:21.941Z,27.32
2023-04-10T11:12:26.114Z,27.33
2023-04-10T11:13:28.610Z,27.31
2023-04-10T11:14:31.654Z,27.30
2023-04-10T11:15:34.708Z,27.28
2023-04-10T11:16:47.420Z,27.34
2023-04-10T11:17:54.711Z,27.35
2023-04-10T11:19:12.916Z,27.35
2023-04-10T11:20:16.329Z,27.36
2023-04-10T11:21:22.801Z,27.36
2023-04-10T11:22:25.454Z,27.33
2023-04-10T11:23:27.721Z,27.34
2023-04-10T11:24:50.698Z,27.35
2023-04-10T11:25:55.729Z,27.40
2023-04-10T11:26:58.638Z,27.36
2023-04-10T11:28:00.425Z,27.40
2023-04-10T11:29:12.713Z,27.40
2023-04-10T11:30:35.528Z,27.47
2023-04-10T11:31:37.592Z,27.43
2023-04-10T11:32:43.928Z,27.44
2023-04-10T11:33:49.470Z,27.42
2023-04-10T11:34:51.728Z,27.43
2023-04-10T11:35:54.778Z,27.42
2023-04-10T11:36:58.193Z,27.44
2023-04-10T11:38:11.132Z,27.50
2023-04-10T11:39:19.151Z,27.48
2023-04-10T11:40:21.206Z,27.48
2023-04-10T11:41:30.367Z,27.51
2023-04-10T11:42:32.665Z,27.49
2023-04-10T11:43:35.288Z,27.50
2023-04-10T11:44:39.434Z,27.51
2023-04-10T11:45:42.449Z,27.49
2023-04-10T11:46:50.854Z,27.54
2023-04-10T11:47:54.613Z,27.52
2023-04-10T11:49:01.277Z,27.58
2023-04-10T11:50:03.880Z,27.54
2023-04-10T11:51:14.241Z,27.58
2023-04-10T11:52:25.799Z,27.59
2023-04-10T11:53:28.731Z,27.58
2023-04-10T11:54:31.227Z,27.60
2023-04-10T11:55:40.910Z,27.60
2023-04-10T11:57:01.182Z,27.65
2023-04-10T11:58:03.098Z,27.63
2023-04-10T11:59:11.464Z,27.61
2023-04-10T12:00:24.549Z,27.66
2023-04-10T12:01:26.388Z,27.64
2023-04-10T12:02:28.523Z,27.64
2023-04-10T12:03:39.509Z,27.65
2023-04-10T12:04:44.340Z,27.64
2023-04-10T12:05:49.782Z,27.69
2023-04-10T12:06:55.808Z,27.67
2023-04-10T12:07:57.708Z,27.66
2023-04-10T12:08:59.749Z,27.68
2023-04-10T12:10:02.022Z,27.68
2023-04-10T12:11:04.413Z,27.67
2023-04-10T12:12:08.365Z,27.71
2023-04-10T12:13:26.092Z,27.76
2023-04-10T12:14:43.291Z,27.77
2023-04-10T12:15:45.185Z,27.71
2023-04-10T12:16:47.696Z,27.71
2023-04-10T12:17:49.916Z,27.70
2023-04-10T12:18:53.468Z,27.69
2023-04-10T12:19:56.422Z,27.69
2023-04-10T12:21:00.420Z,27.71
2023-04-10T12:22:03.113Z,27.72
2023-04-10T12:23:05.209Z,27.71
2023-04-10T12:24:07.008Z,27.72
2023-04-10T12:25:12.844Z,27.74
2023-04-10T12:26:19.011Z,27.76
2023-04-10T12:27:27.886Z,27.78
2023-04-10T12:28:29.734Z,27.75
2023-04-10T12:29:33.562Z,27.73
2023-04-10T12:30:35.614Z,27.73
2023-04-10T12:31:37.716Z,27.72
2023-04-10T12:32:40.423Z,27.75
2023-04-10T12:33:47.272Z,27.76
2023-04-10T12:34:57.877Z,27.76
2023-04-10T12:36:00.502Z,27.73
2023-04-10T12:37:03.274Z,27.73
2023-04-10T12:38:05.492Z,27.72
2023-04-10T12:39:23.811Z,27.80
2023-04-10T12:40:25.711Z,27.73
2023-04-10T12:41:31.707Z,27.73
2023-04-10T12:42:41.109Z,27.76
2023-04-10T12:43:45.036Z,27.73
2023-04-10T12:45:01.003Z,27.79
2023-04-10T12:46:04.985Z,27.75
2023-04-10T12:47:06.868Z,27.72
2023-04-10T12:48:08.827Z,27.70
2023-04-10T12:49:18.746Z,27.77
2023-04-10T12:50:21.241Z,27.73
2023-04-10T12:51:52.431Z,27.82
2023-04-10T12:53:11.629Z,27.76
2023-04-10T12:54:34.908Z,27.80
2023-04-10T12:55:37.504Z,27.71
2023-04-10T12:56:47.862Z,27.73
2023-04-10T12:57:51.853Z,27.72
2023-04-10T12:59:07.710Z,27.74
2023-04-10T13:00:12.947Z,27.70
2023-04-10T13:01:15.028Z,27.68
2023-04-10T13:02:20.004Z,27.68
2023-04-10T13:03:22.457Z,27.66
2023-04-10T13:04:24.652Z,27.70
2023-04-10T13:05:26.653Z,27.68
2023-04-10T13:06:29.253Z,27.68
2023-04-10T13:07:31.500Z,27.67
2023-04-10T13:08:34.932Z,27.68
2023-04-10T13:09:37.473Z,27.66
2023-04-10T13:10:40.735Z,27.65
2023-04-10T13:11:43.141Z,27.66
2023-04-10T13:12:47.426Z,27.65
2023-04-10T13:13:49.878Z,27.65
2023-04-10T13:14:54.373Z,27.67
2023-04-10T13:15:56.232Z,27.67
2023-04-10T13:16:58.343Z,27.66
2023-04-10T13:18:01.673Z,27.66
2023-04-10T13:19:04.731Z,27.66
2023-04-10T13:20:07.674Z,27.66
2023-04-10T13:21:09.549Z,27.65
2023-04-10T13:22:11.377Z,27.66
2023-04-10T13:23:13.191Z,27.67
2023-04-10T13:24:16.633Z,27.66
2023-04-10T13:25:18.859Z,27.64
2023-04-10T13:26:20.877Z,27.63
2023-04-10T13:27:22.794Z,27.65
2023-04-10T13:28:25.961Z,27.66
2023-04-10T13:29:28.825Z,27.67
2023-04-10T13:30:31.225Z,27.65
2023-04-10T13:31:33.154Z,27.66
2023-04-10T13:32:35.077Z,27.66
2023-04-10T13:33:37.163Z,27.65
2023-04-10T13:34:39.263Z,27.66
2023-04-10T13:35:42.174Z,27.67
2023-04-10T13:36:44.234Z,27.66
2023-04-10T13:37:46.450Z,27.67
2023-04-10T13:38:48.598Z,27.67
2023-04-10T13:39:50.809Z,27.67
2023-04-10T13:40:53.608Z,27.66
2023-04-10T13:41:55.803Z,27.66
2023-04-10T13:42:57.738Z,27.68
2023-04-10T13:43:59.601Z,27.67
2023-04-10T13:45:01.639Z,27.69
2023-04-10T13:46:04.238Z,27.70
2023-04-10T13:47:06.362Z,27.70
2023-04-10T13:48:08.691Z,27.67
2023-04-10T13:49:10.645Z,27.67
2023-04-10T13:50:13.700Z,27.68
2023-04-10T13:51:15.852Z,27.69
2023-04-10T13:52:17.703Z,27.68
2023-04-10T13:53:19.551Z,27.68
2023-04-10T13:54:21.397Z,27.68